Time;durP1;ratioP1;P1;durP2;ratioP2;P2;SDS_P1;SDS_P2;PMS_P1;PMS_P2;Temp;Humidity;BMP_temperature;BMP_pressure;BME280_temperature;BME280_humidity;BME280_pressure;Samples;Min_cycle;Max_cycle;Signal;HPM_P1;HPM_P2
2021/03/19 00:00:46;;;;;;;2.35;1.40;;;;;;;;;;5049318;28;20041;-64
2021/03/19 00:03:13;;;;;;;3.03;1.67;;;;;;;;;;5037081;28;20045;-64
2021/03/19 00:05:40;;;;;;;2.50;1.50;;;;;;;;;;5045830;28;20295;-64
2021/03/19 00:08:06;;;;;;;2.95;1.58;;;;;;;;;;5048716;28;20055;-63
2021/03/19 00:10:33;;;;;;;2.08;1.48;;;;;;;;;;5044769;28;20145;-63
2021/03/19 00:13:01;;;;;;;2.38;1.38;;;;;;;;;;5050564;28;20056;-63
2021/03/19 00:15:28;;;;;;;3.67;1.35;;;;;;;;;;5044529;28;20095;-63
2021/03/19 00:17:56;;;;;;;4.97;1.10;;;;;;;;;;5045515;28;20584;-63
2021/03/19 00:20:31;;;;;;;3.28;1.20;;;;;;;;;;5042354;28;20068;-63
2021/03/19 00:22:59;;;;;;;1.63;1.05;;;;;;;;;;5045644;28;20044;-64
2021/03/19 00:25:25;;;;;;;1.20;0.90;;;;;;;;;;5046760;28;20515;-63
2021/03/19 00:27:51;;;;;;;1.17;1.08;;;;;;;;;;5046842;28;20061;-63
2021/03/19 00:30:18;;;;;;;3.65;1.20;;;;;;;;;;5038953;28;20111;-63
2021/03/19 00:32:44;;;;;;;2.45;1.10;;;;;;;;;;5047054;28;20518;-63
2021/03/19 00:35:11;;;;;;;1.52;0.98;;;;;;;;;;5046578;28;20033;-63
2021/03/19 00:37:37;;;;;;;1.53;0.67;;;;;;;;;;5048428;28;20408;-63
2021/03/19 00:40:08;;;;;;;3.20;0.88;;;;;;;;;;5046708;28;20302;-63
2021/03/19 00:42:35;;;;;;;0.73;0.73;;;;;;;;;;5044183;28;20184;-64
2021/03/19 00:45:03;;;;;;;0.82;0.57;;;;;;;;;;5047999;28;20083;-63
2021/03/19 00:47:29;;;;;;;2.17;0.63;;;;;;;;;;5049798;28;20522;-63
2021/03/19 00:49:56;;;;;;;0.55;0.55;;;;;;;;;;5048461;28;20040;-63
2021/03/19 00:52:22;;;;;;;2.15;0.80;;;;;;;;;;5047017;28;20107;-63
2021/03/19 00:54:48;;;;;;;2.08;0.80;;;;;;;;;;5053369;28;20128;-63
2021/03/19 00:57:15;;;;;;;0.98;0.80;;;;;;;;;;5045414;28;20120;-63
2021/03/19 00:59:41;;;;;;;1.08;0.73;;;;;;;;;;5050855;28;20045;-63
2021/03/19 01:02:08;;;;;;;1.20;0.73;;;;;;;;;;5045022;28;20377;-63
2021/03/19 01:04:34;;;;;;;1.10;1.00;;;;;;;;;;5050173;28;20037;-63
2021/03/19 01:07:01;;;;;;;1.48;0.90;;;;;;;;;;5047993;28;20059;-63
2021/03/19 01:09:27;;;;;;;0.88;0.82;;;;;;;;;;5043571;28;20048;-63
2021/03/19 01:11:53;;;;;;;1.20;0.77;;;;;;;;;;5043158;28;20061;-63
2021/03/19 01:14:20;;;;;;;2.00;0.85;;;;;;;;;;5039550;28;20053;-63
2021/03/19 01:16:47;;;;;;;0.70;0.70;;;;;;;;;;5047550;28;20040;-63
2021/03/19 01:19:13;;;;;;;3.87;0.60;;;;;;;;;;5047350;28;20138;-63
2021/03/19 01:21:39;;;;;;;1.23;0.95;;;;;;;;;;5045578;28;20500;-63
2021/03/19 01:24:06;;;;;;;1.30;1.00;;;;;;;;;;5040598;28;20456;-63
2021/03/19 01:26:32;;;;;;;1.42;1.17;;;;;;;;;;5058198;28;20053;-63
2021/03/19 01:28:58;;;;;;;1.20;0.93;;;;;;;;;;5050708;28;20087;-63
2021/03/19 01:31:25;;;;;;;1.55;0.93;;;;;;;;;;5047314;28;20052;-63
2021/03/19 01:33:52;;;;;;;0.95;0.85;;;;;;;;;;5050519;28;20045;-63
2021/03/19 01:36:18;;;;;;;0.95;0.95;;;;;;;;;;5043350;28;20045;-63
2021/03/19 01:38:45;;;;;;;3.70;1.25;;;;;;;;;;5048715;28;20041;-63
2021/03/19 01:41:11;;;;;;;1.50;1.08;;;;;;;;;;5052139;28;20447;-65
2021/03/19 01:43:47;;;;;;;1.58;1.10;;;;;;;;;;5045227;28;20034;-63
2021/03/19 01:46:33;;;;;;;1.33;1.05;;;;;;;;;;5052888;28;20041;-63
2021/03/19 01:49:18;;;;;;;1.75;0.90;;;;;;;;;;5045596;28;20040;-63
2021/03/19 01:52:03;;;;;;;4.82;1.15;;;;;;;;;;5051200;28;20041;-63
2021/03/19 01:54:48;;;;;;;2.35;1.30;;;;;;;;;;5044476;28;20531;-64
2021/03/19 01:57:33;;;;;;;2.17;1.50;;;;;;;;;;5044564;28;20108;-63
2021/03/19 02:00:18;;;;;;;3.70;1.08;;;;;;;;;;5043141;28;20044;-64
2021/03/19 02:03:03;;;;;;;1.85;1.30;;;;;;;;;;5047669;28;20071;-63
2021/03/19 02:05:49;;;;;;;2.13;1.48;;;;;;;;;;5045388;28;20100;-63
2021/03/19 02:08:33;;;;;;;3.58;1.48;;;;;;;;;;5046184;28;20041;-63
2021/03/19 02:11:18;;;;;;;4.85;2.20;;;;;;;;;;5052639;28;20045;-63
2021/03/19 02:14:03;;;;;;;4.00;2.00;;;;;;;;;;5041916;28;20566;-63
2021/03/19 02:16:48;;;;;;;3.45;1.98;;;;;;;;;;5047976;28;20045;-63
2021/03/19 02:19:33;;;;;;;2.65;1.80;;;;;;;;;;5043695;28;20048;-63
2021/03/19 02:22:18;;;;;;;2.80;1.80;;;;;;;;;;5044451;28;20049;-63
2021/03/19 02:25:03;;;;;;;4.60;2.25;;;;;;;;;;5046401;28;20049;-63
2021/03/19 02:27:48;;;;;;;4.68;2.10;;;;;;;;;;5042913;28;20569;-63
2021/03/19 02:30:33;;;;;;;5.28;2.30;;;;;;;;;;5054197;28;20040;-63
2021/03/19 02:33:00;;;;;;;3.25;2.20;;;;;;;;;;5050324;28;20055;-64
2021/03/19 02:35:26;;;;;;;2.78;1.92;;;;;;;;;;5051028;28;20120;-63
2021/03/19 02:37:53;;;;;;;4.93;2.10;;;;;;;;;;5047776;28;20122;-63
2021/03/19 02:40:21;;;;;;;4.25;2.35;;;;;;;;;;5052037;28;20041;-63
2021/03/19 02:42:48;;;;;;;7.22;2.30;;;;;;;;;;5049207;28;20057;-63
2021/03/19 02:45:17;;;;;;;5.87;2.40;;;;;;;;;;5052131;28;20078;-63
2021/03/19 02:47:43;;;;;;;6.13;2.20;;;;;;;;;;5046091;28;20098;-63
2021/03/19 02:50:10;;;;;;;5.43;2.35;;;;;;;;;;5046183;28;20063;-64
2021/03/19 02:52:38;;;;;;;5.90;2.67;;;;;;;;;;5047750;28;20443;-63
2021/03/19 02:55:06;;;;;;;7.15;2.60;;;;;;;;;;5046857;28;20051;-63
2021/03/19 02:57:32;;;;;;;;;;;;;;;;;;5051381;28;20389;-64
2021/03/19 02:59:59;;;;;;;6.80;2.60;;;;;;;;;;5050425;28;19924;-63
2021/03/19 03:02:26;;;;;;;5.05;2.33;;;;;;;;;;5051638;28;20045;-63
2021/03/19 03:04:53;;;;;;;8.63;2.60;;;;;;;;;;5050463;28;20037;-63
2021/03/19 03:07:29;;;;;;;7.63;3.00;;;;;;;;;;5046749;28;20142;-63
2021/03/19 03:09:57;;;;;;;6.90;2.45;;;;;;;;;;5044034;28;20052;-63
2021/03/19 03:12:23;;;;;;;3.67;2.67;;;;;;;;;;5050838;28;20056;-63
2021/03/19 03:14:50;;;;;;;6.28;2.58;;;;;;;;;;5045818;28;20056;-63
2021/03/19 03:17:17;;;;;;;3.25;2.40;;;;;;;;;;5046711;28;20053;-63
2021/03/19 03:19:44;;;;;;;7.32;2.50;;;;;;;;;;5050208;28;20060;-63
2021/03/19 03:22:10;;;;;;;4.93;2.33;;;;;;;;;;5048147;28;20041;-64
2021/03/19 03:24:37;;;;;;;3.95;2.53;;;;;;;;;;5053614;28;20040;-63
2021/03/19 03:27:03;;;;;;;4.73;2.40;;;;;;;;;;5039657;28;20072;-63
2021/03/19 03:29:29;;;;;;;4.00;2.40;;;;;;;;;;5048207;28;20303;-63
2021/03/19 03:31:56;;;;;;;3.25;2.10;;;;;;;;;;5043019;28;20049;-63
2021/03/19 03:34:23;;;;;;;8.83;1.93;;;;;;;;;;5040889;28;20148;-63
2021/03/19 03:36:50;;;;;;;5.38;2.13;;;;;;;;;;5044972;28;20094;-63
2021/03/19 03:39:22;;;;;;;8.85;1.90;;;;;;;;;;5045280;28;20057;-63
2021/03/19 03:41:49;;;;;;;3.92;2.15;;;;;;;;;;5049172;28;20064;-63
2021/03/19 03:44:17;;;;;;;3.58;2.50;;;;;;;;;;5050071;28;20433;-63
2021/03/19 03:46:44;;;;;;;;;;;;;;;;;;5050355;28;20052;-63
2021/03/19 03:49:15;;;;;;;5.40;1.90;;;;;;;;;;5049126;28;20494;-63
2021/03/19 03:51:42;;;;;;;2.85;1.80;;;;;;;;;;5044623;28;20195;-63
2021/03/19 03:54:08;;;;;;;5.63;1.98;;;;;;;;;;5049346;28;20052;-63
2021/03/19 03:56:35;;;;;;;3.75;2.03;;;;;;;;;;5047957;28;20049;-63
2021/03/19 03:59:01;;;;;;;8.43;2.15;;;;;;;;;;5047972;28;20033;-63
2021/03/19 04:01:28;;;;;;;3.43;1.67;;;;;;;;;;5046953;28;20076;-63
2021/03/19 04:03:54;;;;;;;4.25;1.90;;;;;;;;;;5048629;28;20037;-63
2021/03/19 04:06:21;;;;;;;7.00;2.00;;;;;;;;;;5037841;28;20037;-63
2021/03/19 04:08:47;;;;;;;4.00;2.00;;;;;;;;;;5039989;28;20041;-63
2021/03/19 04:11:16;;;;;;;4.77;1.73;;;;;;;;;;5044082;28;20041;-63
2021/03/19 04:13:43;;;;;;;3.10;1.88;;;;;;;;;;5048543;28;20033;-63
2021/03/19 04:16:09;;;;;;;6.22;2.25;;;;;;;;;;5044010;28;20055;-63
2021/03/19 04:18:36;;;;;;;5.05;1.73;;;;;;;;;;5052563;28;20051;-63
2021/03/19 04:21:07;;;;;;;5.20;2.20;;;;;;;;;;5044323;28;20045;-63
2021/03/19 04:23:34;;;;;;;7.53;2.70;;;;;;;;;;5047345;28;20049;-63
2021/03/19 04:26:01;;;;;;;4.70;2.10;;;;;;;;;;5051016;28;20056;-63
2021/03/19 04:28:35;;;;;;;6.07;1.90;;;;;;;;;;5049188;28;20128;-63
2021/03/19 04:31:02;;;;;;;7.47;2.72;;;;;;;;;;5047440;28;20037;-63
2021/03/19 04:33:29;;;;;;;5.00;2.15;;;;;;;;;;5040714;28;20148;-62
2021/03/19 04:36:04;;;;;;;4.47;1.70;;;;;;;;;;5045088;28;20083;-63
2021/03/19 04:38:30;;;;;;;4.80;1.90;;;;;;;;;;5042368;28;20057;-63
2021/03/19 04:40:57;;;;;;;4.53;1.88;;;;;;;;;;5045575;28;20116;-63
2021/03/19 04:43:23;;;;;;;7.90;2.42;;;;;;;;;;5045527;28;20168;-63
2021/03/19 04:45:50;;;;;;;3.95;1.83;;;;;;;;;;5046420;28;20052;-63
2021/03/19 04:48:16;;;;;;;9.25;1.92;;;;;;;;;;5047467;28;20053;-63
2021/03/19 04:50:42;;;;;;;5.72;2.20;;;;;;;;;;5049234;28;20061;-63
2021/03/19 04:53:09;;;;;;;4.40;2.30;;;;;;;;;;5046980;28;20040;-63
2021/03/19 04:55:35;;;;;;;5.57;2.10;;;;;;;;;;5039851;28;20048;-63
2021/03/19 04:58:01;;;;;;;3.72;1.95;;;;;;;;;;5042812;28;20085;-63
2021/03/19 05:00:28;;;;;;;5.15;2.08;;;;;;;;;;5039948;28;20044;-63
2021/03/19 05:02:54;;;;;;;3.17;1.60;;;;;;;;;;5047301;28;20116;-63
2021/03/19 05:05:23;;;;;;;5.07;1.95;;;;;;;;;;5044729;28;20052;-63
2021/03/19 05:07:50;;;;;;;3.58;2.10;;;;;;;;;;5044856;28;20781;-63
2021/03/19 05:10:17;;;;;;;4.90;2.00;;;;;;;;;;5045710;28;20428;-63
2021/03/19 05:12:44;;;;;;;5.18;2.10;;;;;;;;;;5048779;28;20144;-63
2021/03/19 05:15:10;;;;;;;5.53;1.27;;;;;;;;;;5049001;28;20037;-63
2021/03/19 05:17:37;;;;;;;5.30;1.65;;;;;;;;;;5046054;28;20041;-63
2021/03/19 05:20:07;;;;;;;5.25;1.90;;;;;;;;;;5041744;28;20049;-63
2021/03/19 05:22:34;;;;;;;4.47;1.95;;;;;;;;;;5041427;28;20040;-63
2021/03/19 05:25:00;;;;;;;6.32;2.10;;;;;;;;;;5047608;28;20048;-63
2021/03/19 05:27:27;;;;;;;5.88;2.00;;;;;;;;;;5040818;28;20061;-63
2021/03/19 05:29:55;;;;;;;5.85;1.45;;;;;;;;;;5045490;28;20040;-63
2021/03/19 05:32:22;;;;;;;5.45;2.00;;;;;;;;;;5038481;28;20078;-63
2021/03/19 05:34:49;;;;;;;2.97;1.80;;;;;;;;;;5039235;28;20053;-63
2021/03/19 05:37:16;;;;;;;4.97;1.40;;;;;;;;;;5040682;28;20259;-63
2021/03/19 05:39:42;;;;;;;3.03;1.73;;;;;;;;;;5047706;28;20291;-63
2021/03/19 05:42:21;;;;;;;5.13;1.73;;;;;;;;;;5045096;28;20262;-63
2021/03/19 05:44:49;;;;;;;4.32;1.73;;;;;;;;;;5041413;28;20044;-63
2021/03/19 05:47:15;;;;;;;5.15;2.03;;;;;;;;;;5040651;28;20057;-62
2021/03/19 05:49:41;;;;;;;6.53;2.33;;;;;;;;;;5038267;28;20057;-62
2021/03/19 05:52:08;;;;;;;2.97;1.77;;;;;;;;;;5045503;28;20052;-63
2021/03/19 05:54:34;;;;;;;5.75;1.77;;;;;;;;;;5043028;28;20048;-62
2021/03/19 05:57:04;;;;;;;4.88;1.60;;;;;;;;;;5047756;28;20420;-63
2021/03/19 05:59:31;;;;;;;5.72;2.20;;;;;;;;;;5040178;28;20056;-63
2021/03/19 06:01:57;;;;;;;3.73;1.37;;;;;;;;;;5046619;28;20131;-63
2021/03/19 06:04:26;;;;;;;9.80;2.35;;;;;;;;;;5049247;28;20291;-63
2021/03/19 06:06:54;;;;;;;4.20;1.80;;;;;;;;;;5040446;28;20420;-63
2021/03/19 06:09:25;;;;;;;6.20;2.15;;;;;;;;;;5040615;28;20056;-63
2021/03/19 06:11:53;;;;;;;4.15;1.88;;;;;;;;;;5040006;28;20041;-63
2021/03/19 06:14:19;;;;;;;7.10;1.85;;;;;;;;;;5038749;28;20116;-63
2021/03/19 06:16:49;;;;;;;4.28;1.77;;;;;;;;;;5040614;28;20512;-63
2021/03/19 06:19:25;;;;;;;5.43;1.93;;;;;;;;;;5044094;28;20037;-63
2021/03/19 06:22:01;;;;;;;7.63;1.80;;;;;;;;;;5049338;28;20045;-63
2021/03/19 06:24:28;;;;;;;5.03;1.85;;;;;;;;;;5051633;28;20090;-63
2021/03/19 06:27:09;;;;;;;6.68;1.95;;;;;;;;;;5058718;28;20061;-63
2021/03/19 06:29:44;;;;;;;7.03;1.80;;;;;;;;;;5049848;28;20040;-63
2021/03/19 06:32:15;;;;;;;6.65;1.98;;;;;;;;;;5054967;28;20500;-63
2021/03/19 06:34:59;;;;;;;7.60;2.00;;;;;;;;;;5044616;28;20149;-63
2021/03/19 06:37:32;;;;;;;3.58;1.48;;;;;;;;;;5047248;28;20049;-63
2021/03/19 06:39:59;;;;;;;5.15;1.63;;;;;;;;;;5046381;28;20037;-62
2021/03/19 06:42:25;;;;;;;5.47;1.75;;;;;;;;;;5046760;28;20041;-62
2021/03/19 06:45:10;;;;;;;7.10;1.90;;;;;;;;;;5050875;28;20060;-62
2021/03/19 06:47:39;;;;;;;5.78;1.90;;;;;;;;;;5046534;28;20055;-62
2021/03/19 06:50:10;;;;;;;14.82;2.00;;;;;;;;;;5048754;28;20041;-62
2021/03/19 06:52:37;;;;;;;6.47;1.70;;;;;;;;;;5046580;28;20087;-62
2021/03/19 06:55:29;;;;;;;6.38;1.85;;;;;;;;;;5050908;28;20056;-62
2021/03/19 06:57:56;;;;;;;4.50;1.48;;;;;;;;;;5039921;28;20485;-62
2021/03/19 07:00:43;;;;;;;4.97;1.73;;;;;;;;;;5047381;28;20124;-62
2021/03/19 07:03:19;;;;;;;4.30;1.67;;;;;;;;;;5047883;28;20033;-62
2021/03/19 07:06:03;;;;;;;4.63;1.73;;;;;;;;;;5046304;28;20048;-62
2021/03/19 07:08:46;;;;;;;4.72;1.85;;;;;;;;;;5041925;28;20485;-62
2021/03/19 07:11:23;;;;;;;3.15;1.70;;;;;;;;;;5051949;28;20052;-62
2021/03/19 07:13:55;;;;;;;4.88;1.40;;;;;;;;;;5050049;28;20049;-62
2021/03/19 07:16:37;;;;;;;5.55;1.60;;;;;;;;;;5044455;28;20042;-62
2021/03/19 07:19:26;;;;;;;4.63;1.60;;;;;;;;;;5045811;28;20666;-62
2021/03/19 07:21:57;;;;;;;3.90;2.00;;;;;;;;;;5048670;28;20052;-62
2021/03/19 07:24:30;;;;;;;5.20;1.70;;;;;;;;;;5050043;28;20485;-62
2021/03/19 07:27:02;;;;;;;6.88;1.83;;;;;;;;;;5055002;28;20575;-62
2021/03/19 07:29:44;;;;;;;2.03;1.25;;;;;;;;;;5051378;28;20049;-62
2021/03/19 07:32:19;;;;;;;6.68;1.70;;;;;;;;;;5059895;28;20044;-62
2021/03/19 07:34:52;;;;;;;4.65;1.80;;;;;;;;;;5051714;28;20064;-62
2021/03/19 07:37:18;;;;;;;5.60;1.75;;;;;;;;;;5049785;28;20037;-63
2021/03/19 07:39:53;;;;;;;4.05;1.88;;;;;;;;;;5050110;28;20045;-62
2021/03/19 07:42:23;;;;;;;3.95;1.73;;;;;;;;;;5053270;28;20044;-62
2021/03/19 07:44:51;;;;;;;6.28;1.70;;;;;;;;;;5047005;28;20071;-62
2021/03/19 07:47:26;;;;;;;3.05;1.33;;;;;;;;;;5050222;28;20454;-62
2021/03/19 07:50:17;;;;;;;3.55;1.45;;;;;;;;;;5045886;28;20052;-62
2021/03/19 07:53:02;;;;;;;5.72;1.80;;;;;;;;;;5046408;28;20399;-62
2021/03/19 07:55:44;;;;;;;6.53;1.90;;;;;;;;;;5046218;28;20049;-63
2021/03/19 07:58:28;;;;;;;4.57;1.60;;;;;;;;;;5040773;28;20048;-62
2021/03/19 08:01:04;;;;;;;9.98;1.60;;;;;;;;;;5047445;28;20049;-62
2021/03/19 08:03:32;;;;;;;5.80;1.75;;;;;;;;;;5049584;28;20044;-63
2021/03/19 08:06:01;;;;;;;4.07;1.50;;;;;;;;;;5048590;28;20148;-62
2021/03/19 08:08:31;;;;;;;2.85;1.52;;;;;;;;;;5047322;28;20045;-62
2021/03/19 08:11:17;;;;;;;4.32;1.50;;;;;;;;;;5043287;28;20057;-63
2021/03/19 08:13:50;;;;;;;4.43;1.58;;;;;;;;;;5042977;28;20040;-62
2021/03/19 08:16:19;;;;;;;4.28;1.55;;;;;;;;;;5051050;28;20052;-62
2021/03/19 08:18:53;;;;;;;4.40;1.80;;;;;;;;;;5054084;28;20049;-62
2021/03/19 08:21:33;;;;;;;2.65;1.58;;;;;;;;;;5049712;28;20397;-62
2021/03/19 08:24:05;;;;;;;4.80;1.50;;;;;;;;;;5053428;28;20072;-63
2021/03/19 08:26:36;;;;;;;7.03;1.55;;;;;;;;;;5051000;28;20064;-62
2021/03/19 08:29:06;;;;;;;6.72;1.67;;;;;;;;;;5051884;28;20037;-62
2021/03/19 08:31:47;;;;;;;5.38;1.80;;;;;;;;;;5046485;28;20045;-62
2021/03/19 08:34:44;;;;;;;4.00;1.58;;;;;;;;;;5047378;28;20127;-62
2021/03/19 08:37:23;;;;;;;4.25;1.40;;;;;;;;;;5041763;28;20053;-62
2021/03/19 08:39:50;;;;;;;3.80;1.60;;;;;;;;;;5048796;28;20400;-62
2021/03/19 08:42:24;;;;;;;3.58;1.50;;;;;;;;;;5047654;28;20488;-62
2021/03/19 08:44:50;;;;;;;1.08;0.85;;;;;;;;;;5051242;28;20048;-62
2021/03/19 08:47:16;;;;;;;3.10;1.52;;;;;;;;;;5037177;28;20049;-62
2021/03/19 08:49:48;;;;;;;5.13;1.80;;;;;;;;;;5045751;28;20064;-63
2021/03/19 08:52:21;;;;;;;5.53;2.10;;;;;;;;;;5042685;28;20492;-62
2021/03/19 08:55:07;;;;;;;2.05;1.10;;;;;;;;;;5055455;28;20056;-62
2021/03/19 08:57:35;;;;;;;3.25;1.30;;;;;;;;;;5048519;28;20045;-63
2021/03/19 09:00:05;;;;;;;4.60;1.48;;;;;;;;;;5045246;28;20046;-62
2021/03/19 09:02:31;;;;;;;3.35;1.10;;;;;;;;;;5046603;28;20055;-62
2021/03/19 09:05:01;;;;;;;2.95;1.42;;;;;;;;;;5043595;28;20480;-63
2021/03/19 09:07:31;;;;;;;6.15;1.95;;;;;;;;;;5045642;28;20127;-63
2021/03/19 09:09:59;;;;;;;5.80;2.05;;;;;;;;;;5047224;28;20037;-63
2021/03/19 09:12:27;;;;;;;3.30;1.27;;;;;;;;;;5047749;28;20037;-63
2021/03/19 09:15:12;;;;;;;6.53;2.08;;;;;;;;;;5053852;28;20128;-63
2021/03/19 09:17:51;;;;;;;7.53;1.67;;;;;;;;;;5044055;28;20064;-62
2021/03/19 09:20:21;;;;;;;3.67;1.58;;;;;;;;;;5044267;28;20136;-63
2021/03/19 09:23:01;;;;;;;4.47;0.98;;;;;;;;;;5040034;28;20044;-63
2021/03/19 09:25:46;;;;;;;4.50;1.25;;;;;;;;;;5043753;28;20513;-63
2021/03/19 09:28:17;;;;;;;3.53;1.17;;;;;;;;;;5046917;28;20045;-63
2021/03/19 09:30:49;;;;;;;2.63;1.30;;;;;;;;;;5046743;28;20049;-63
2021/03/19 09:33:34;;;;;;;2.40;1.50;;;;;;;;;;5045159;28;20082;-62
2021/03/19 09:36:01;;;;;;;2.97;1.40;;;;;;;;;;5046052;28;20489;-63
2021/03/19 09:38:28;;;;;;;4.65;1.50;;;;;;;;;;5035313;28;20092;-63
2021/03/19 09:40:58;;;;;;;2.75;1.30;;;;;;;;;;5044052;28;20087;-63
2021/03/19 09:43:28;;;;;;;3.03;1.27;;;;;;;;;;5045600;28;20523;-63
2021/03/19 09:46:01;;;;;;;2.47;1.42;;;;;;;;;;5057172;28;20040;-63
2021/03/19 09:48:31;;;;;;;2.45;1.25;;;;;;;;;;5056028;28;20071;-63
2021/03/19 09:51:03;;;;;;;5.07;1.67;;;;;;;;;;5046965;28;20039;-63
2021/03/19 09:53:31;;;;;;;3.08;1.30;;;;;;;;;;5047246;28;20053;-65
2021/03/19 09:55:59;;;;;;;4.38;1.65;;;;;;;;;;5052786;28;20124;-63
2021/03/19 09:58:34;;;;;;;5.18;1.33;;;;;;;;;;5047440;28;20041;-63
2021/03/19 10:01:04;;;;;;;4.68;1.58;;;;;;;;;;5050375;28;20485;-63
2021/03/19 10:03:50;;;;;;;4.88;1.30;;;;;;;;;;5047063;28;20067;-64
2021/03/19 10:06:18;;;;;;;4.57;1.45;;;;;;;;;;5045588;28;20454;-63
2021/03/19 10:08:48;;;;;;;3.03;1.63;;;;;;;;;;5051359;28;20041;-63
2021/03/19 10:11:15;;;;;;;1.85;1.25;;;;;;;;;;5054212;28;20041;-63
2021/03/19 10:13:41;;;;;;;3.13;1.50;;;;;;;;;;5047390;28;20045;-63
2021/03/19 10:16:08;;;;;;;9.10;1.38;;;;;;;;;;5052011;28;20045;-63
2021/03/19 10:18:51;;;;;;;5.68;1.10;;;;;;;;;;5048960;28;20037;-63
2021/03/19 10:21:21;;;;;;;2.22;1.52;;;;;;;;;;5051526;28;20039;-63
2021/03/19 10:23:56;;;;;;;4.80;1.25;;;;;;;;;;5050439;28;20051;-63
2021/03/19 10:26:34;;;;;;;6.60;1.55;;;;;;;;;;5048971;28;20065;-63
2021/03/19 10:29:04;;;;;;;5.38;1.13;;;;;;;;;;5042662;28;20138;-63
2021/03/19 10:31:30;;;;;;;2.03;1.30;;;;;;;;;;5046948;28;20052;-63
2021/03/19 10:34:00;;;;;;;2.72;1.10;;;;;;;;;;5052523;28;20436;-63
2021/03/19 10:36:30;;;;;;;6.63;1.45;;;;;;;;;;5045922;28;20037;-63
2021/03/19 10:38:59;;;;;;;4.43;1.33;;;;;;;;;;5052186;28;20033;-63
2021/03/19 10:41:40;;;;;;;3.88;1.30;;;;;;;;;;5048941;28;20053;-63
2021/03/19 10:44:09;;;;;;;3.40;1.75;;;;;;;;;;5048799;28;20057;-63
2021/03/19 10:46:40;;;;;;;5.03;1.30;;;;;;;;;;5051706;28;20079;-63
2021/03/19 10:49:12;;;;;;;3.38;1.42;;;;;;;;;;5050813;28;20122;-63
2021/03/19 10:51:44;;;;;;;2.75;1.20;;;;;;;;;;5045248;28;20037;-63
2021/03/19 10:54:17;;;;;;;5.20;1.48;;;;;;;;;;5043418;28;20041;-63
2021/03/19 10:57:03;;;;;;;2.70;1.40;;;;;;;;;;5050382;28;20037;-63
2021/03/19 10:59:32;;;;;;;2.90;1.33;;;;;;;;;;5049905;28;20114;-63
2021/03/19 11:02:12;;;;;;;4.45;1.30;;;;;;;;;;5050496;28;20056;-63
2021/03/19 11:04:39;;;;;;;3.88;1.60;;;;;;;;;;5051148;28;20489;-63
2021/03/19 11:07:18;;;;;;;2.10;1.50;;;;;;;;;;5051536;28;20504;-63
2021/03/19 11:09:44;;;;;;;;;;;;;;;;;;5053118;28;20040;-63
2021/03/19 11:12:20;;;;;;;3.00;1.60;;;;;;;;;;5049485;28;19928;-63
2021/03/19 11:14:58;;;;;;;2.97;1.20;;;;;;;;;;5044392;28;20052;-63
2021/03/19 11:17:24;;;;;;;3.92;1.50;;;;;;;;;;5048153;28;20048;-63
2021/03/19 11:20:03;;;;;;;4.07;1.58;;;;;;;;;;5047024;28;20063;-64
2021/03/19 11:22:36;;;;;;;3.22;1.30;;;;;;;;;;5046338;28;20051;-63
2021/03/19 11:25:15;;;;;;;3.38;1.13;;;;;;;;;;5051914;28;20045;-63
2021/03/19 11:27:42;;;;;;;2.38;1.42;;;;;;;;;;5046500;28;20053;-63
2021/03/19 11:30:24;;;;;;;2.47;1.38;;;;;;;;;;5050973;28;20045;-63
2021/03/19 11:33:05;;;;;;;2.90;1.30;;;;;;;;;;5045093;28;20063;-63
2021/03/19 11:35:31;;;;;;;2.53;1.40;;;;;;;;;;5041092;28;20045;-64
2021/03/19 11:37:58;;;;;;;3.73;1.53;;;;;;;;;;5048681;28;20098;-63
2021/03/19 11:40:24;;;;;;;4.28;1.42;;;;;;;;;;5049886;28;20041;-63
2021/03/19 11:42:51;;;;;;;5.18;1.48;;;;;;;;;;5044925;28;20071;-63
2021/03/19 11:45:19;;;;;;;1.75;0.90;;;;;;;;;;5047541;28;20033;-63
2021/03/19 11:47:51;;;;;;;4.35;1.48;;;;;;;;;;5050583;28;20064;-63
2021/03/19 11:50:31;;;;;;;1.83;1.13;;;;;;;;;;5054610;28;20041;-63
2021/03/19 11:53:23;;;;;;;2.08;1.23;;;;;;;;;;5040150;28;20099;-63
2021/03/19 11:55:51;;;;;;;4.30;1.85;;;;;;;;;;5048289;28;20085;-63
2021/03/19 11:58:19;;;;;;;3.30;1.60;;;;;;;;;;5044452;28;20071;-63
2021/03/19 12:00:47;;;;;;;1.33;1.05;;;;;;;;;;5051317;28;20045;-63
2021/03/19 12:03:17;;;;;;;1.63;1.10;;;;;;;;;;5049421;28;20124;-63
2021/03/19 12:05:44;;;;;;;1.45;1.02;;;;;;;;;;5050329;28;20049;-63
2021/03/19 12:08:10;;;;;;;2.80;1.20;;;;;;;;;;5044589;28;20435;-63
2021/03/19 12:10:37;;;;;;;2.00;1.10;;;;;;;;;;5051803;28;20037;-63
2021/03/19 12:13:05;;;;;;;2.17;1.25;;;;;;;;;;5043301;28;20051;-63
2021/03/19 12:15:32;;;;;;;2.83;1.23;;;;;;;;;;5048534;28;20033;-64
2021/03/19 12:18:00;;;;;;;2.20;1.25;;;;;;;;;;5049946;28;20052;-63
2021/03/19 12:20:30;;;;;;;2.72;1.55;;;;;;;;;;5043701;28;20037;-63
2021/03/19 12:22:56;;;;;;;3.25;1.50;;;;;;;;;;5047494;28;20044;-63
2021/03/19 12:25:29;;;;;;;3.35;1.23;;;;;;;;;;5054702;28;20130;-63
2021/03/19 12:27:55;;;;;;;1.67;0.95;;;;;;;;;;5049425;28;20052;-63
2021/03/19 12:30:22;;;;;;;2.88;0.90;;;;;;;;;;5042454;28;20048;-63
2021/03/19 12:32:48;;;;;;;2.55;1.30;;;;;;;;;;5042189;28;20087;-64
2021/03/19 12:35:16;;;;;;;2.47;1.05;;;;;;;;;;5042997;28;20086;-63
2021/03/19 12:37:43;;;;;;;;;;;;;;;;;;5051561;28;20568;-63
2021/03/19 12:40:10;;;;;;;2.35;1.05;;;;;;;;;;5050862;28;20007;-63
2021/03/19 12:42:37;;;;;;;1.95;1.10;;;;;;;;;;5051662;28;20156;-63
2021/03/19 12:45:05;;;;;;;1.65;0.98;;;;;;;;;;5043993;28;20049;-63
2021/03/19 12:47:31;;;;;;;2.70;1.10;;;;;;;;;;5045098;28;20447;-65
2021/03/19 12:49:58;;;;;;;2.28;0.95;;;;;;;;;;5039427;28;20041;-63
2021/03/19 12:52:26;;;;;;;2.83;0.98;;;;;;;;;;5051552;28;20620;-63
2021/03/19 12:54:52;;;;;;;1.92;0.95;;;;;;;;;;5043270;28;20033;-63
2021/03/19 12:57:18;;;;;;;2.75;1.08;;;;;;;;;;5044899;28;20047;-63
2021/03/19 12:59:59;;;;;;;1.17;1.00;;;;;;;;;;5048464;28;20045;-63
2021/03/19 13:02:25;;;;;;;1.63;1.10;;;;;;;;;;5044717;28;20044;-64
2021/03/19 13:04:51;;;;;;;2.60;1.23;;;;;;;;;;5048447;28;20124;-63
2021/03/19 13:07:17;;;;;;;1.80;1.10;;;;;;;;;;5043389;28;20648;-63
2021/03/19 13:09:45;;;;;;;3.17;1.25;;;;;;;;;;5047843;28;20517;-63
2021/03/19 13:12:11;;;;;;;1.13;0.90;;;;;;;;;;5048706;28;20087;-63
2021/03/19 13:14:48;;;;;;;2.83;1.27;;;;;;;;;;5050490;28;20064;-63
2021/03/19 13:17:15;;;;;;;2.63;1.30;;;;;;;;;;5056408;28;20048;-63
2021/03/19 13:19:42;;;;;;;3.20;1.13;;;;;;;;;;5050861;28;20036;-63
2021/03/19 13:22:08;;;;;;;1.83;1.25;;;;;;;;;;5042410;28;20056;-64
2021/03/19 13:24:34;;;;;;;1.42;1.10;;;;;;;;;;5049585;28;20033;-63
2021/03/19 13:27:01;;;;;;;3.53;1.35;;;;;;;;;;5052024;28;20059;-63
2021/03/19 13:29:27;;;;;;;1.17;1.02;;;;;;;;;;5040003;28;20095;-64
2021/03/19 13:31:53;;;;;;;3.25;1.38;;;;;;;;;;5047005;28;20098;-63
2021/03/19 13:34:20;;;;;;;1.27;1.00;;;;;;;;;;5051579;28;20051;-63
2021/03/19 13:36:46;;;;;;;3.33;1.20;;;;;;;;;;5048912;28;20045;-63
2021/03/19 13:39:12;;;;;;;1.38;1.20;;;;;;;;;;5048340;28;20042;-63
2021/03/19 13:41:39;;;;;;;4.03;1.38;;;;;;;;;;5042377;28;20119;-63
2021/03/19 13:44:06;;;;;;;2.83;1.10;;;;;;;;;;5048256;28;20100;-63
2021/03/19 13:46:34;;;;;;;2.30;1.30;;;;;;;;;;5056574;28;20044;-63
2021/03/19 13:49:01;;;;;;;2.60;1.20;;;;;;;;;;5054966;28;20120;-63
2021/03/19 13:51:27;;;;;;;1.42;1.02;;;;;;;;;;5046632;28;20049;-63
2021/03/19 13:53:57;;;;;;;2.42;0.77;;;;;;;;;;5053403;28;20102;-63
2021/03/19 13:56:26;;;;;;;2.88;1.08;;;;;;;;;;5054039;28;20560;-63
2021/03/19 13:58:57;;;;;;;2.47;0.90;;;;;;;;;;5049895;28;20125;-63
2021/03/19 14:01:23;;;;;;;1.52;1.02;;;;;;;;;;5056248;28;20484;-63
2021/03/19 14:03:49;;;;;;;1.33;0.85;;;;;;;;;;5049501;28;20051;-64
2021/03/19 14:06:18;;;;;;;2.15;1.00;;;;;;;;;;5053504;28;20045;-64
2021/03/19 14:08:45;;;;;;;2.88;1.13;;;;;;;;;;5054763;28;20045;-63
2021/03/19 14:11:11;;;;;;;2.55;1.17;;;;;;;;;;5051413;28;20436;-63
2021/03/19 14:13:38;;;;;;;1.30;1.00;;;;;;;;;;5050752;28;20046;-63
2021/03/19 14:16:05;;;;;;;1.90;1.10;;;;;;;;;;5054549;28;20044;-63
2021/03/19 14:18:31;;;;;;;1.77;1.08;;;;;;;;;;5052619;28;20962;-63
2021/03/19 14:20:58;;;;;;;4.10;1.15;;;;;;;;;;5053404;28;20041;-63
2021/03/19 14:23:26;;;;;;;2.50;1.20;;;;;;;;;;5051305;28;20045;-63
2021/03/19 14:25:52;;;;;;;;;;;;;;;;;;5052765;28;20489;-64
2021/03/19 14:28:27;;;;;;;0.88;0.88;;;;;;;;;;5052629;28;19963;-63
2021/03/19 14:31:06;;;;;;;2.67;1.00;;;;;;;;;;5053148;28;20049;-63
2021/03/19 14:33:33;;;;;;;3.28;1.08;;;;;;;;;;5050863;28;20051;-64
2021/03/19 14:36:00;;;;;;;2.65;1.15;;;;;;;;;;5052001;28;20041;-63
2021/03/19 14:38:27;;;;;;;4.60;1.05;;;;;;;;;;5054448;28;20067;-64
2021/03/19 14:40:56;;;;;;;3.58;0.90;;;;;;;;;;5049003;28;20107;-63
2021/03/19 14:43:23;;;;;;;1.33;1.10;;;;;;;;;;5049148;28;20472;-63
2021/03/19 14:45:50;;;;;;;1.70;1.10;;;;;;;;;;5052507;28;20044;-63
2021/03/19 14:48:22;;;;;;;2.70;1.10;;;;;;;;;;5048435;28;20053;-63
2021/03/19 14:50:48;;;;;;;1.50;1.00;;;;;;;;;;5049933;28;20132;-63
2021/03/19 14:53:19;;;;;;;2.35;1.20;;;;;;;;;;5048723;28;20045;-63
2021/03/19 14:55:45;;;;;;;1.48;1.02;;;;;;;;;;5040653;28;20129;-63
2021/03/19 14:58:12;;;;;;;2.15;1.00;;;;;;;;;;5050098;28;20044;-63
2021/03/19 15:00:40;;;;;;;2.80;1.08;;;;;;;;;;5048807;28;20082;-63
2021/03/19 15:03:06;;;;;;;3.25;1.08;;;;;;;;;;5052483;28;20063;-63
2021/03/19 15:05:33;;;;;;;1.92;1.15;;;;;;;;;;5044412;28;20049;-63